sensor_id;sensor_type;location;lat;lon;timestamp;P1;durP1;ratioP1;P2;durP2;ratioP2
22103;SDS011;11218;48.886;9.426;2022-11-15T00:01:14;540.70;;;165.23;;
22103;SDS011;11218;48.886;9.426;2022-11-15T00:03:43;546.30;;;174.15;;
22103;SDS011;11218;48.886;9.426;2022-11-15T00:06:11;544.25;;;172.25;;
22103;SDS011;11218;48.886;9.426;2022-11-15T00:08:39;548.30;;;174.27;;
22103;SDS011;11218;48.886;9.426;2022-11-15T00:11:08;531.33;;;170.65;;
22103;SDS011;11218;48.886;9.426;2022-11-15T00:13:38;547.30;;;174.68;;
22103;SDS011;11218;48.886;9.426;2022-11-15T00:16:08;548.50;;;175.48;;
22103;SDS011;11218;48.886;9.426;2022-11-15T00:18:37;526.63;;;165.82;;
22103;SDS011;11218;48.886;9.426;2022-11-15T00:21:06;522.67;;;165.48;;
22103;SDS011;11218;48.886;9.426;2022-11-15T00:23:35;517.45;;;165.20;;
22103;SDS011;11218;48.886;9.426;2022-11-15T00:26:03;543.50;;;172.00;;
22103;SDS011;11218;48.886;9.426;2022-11-15T00:28:33;536.13;;;168.07;;
22103;SDS011;11218;48.886;9.426;2022-11-15T00:31:01;548.28;;;170.75;;
22103;SDS011;11218;48.886;9.426;2022-11-15T00:33:31;556.45;;;176.48;;
22103;SDS011;11218;48.886;9.426;2022-11-15T00:36:00;553.80;;;173.25;;
22103;SDS011;11218;48.886;9.426;2022-11-15T00:38:30;552.47;;;173.85;;
22103;SDS011;11218;48.886;9.426;2022-11-15T00:41:00;524.22;;;172.43;;
22103;SDS011;11218;48.886;9.426;2022-11-15T00:43:34;530.42;;;166.95;;
22103;SDS011;11218;48.886;9.426;2022-11-15T00:46:03;521.17;;;163.40;;
22103;SDS011;11218;48.886;9.426;2022-11-15T00:48:32;531.40;;;168.68;;
22103;SDS011;11218;48.886;9.426;2022-11-15T00:51:00;526.88;;;169.93;;
22103;SDS011;11218;48.886;9.426;2022-11-15T00:53:28;506.33;;;162.85;;
22103;SDS011;11218;48.886;9.426;2022-11-15T00:55:56;469.65;;;154.48;;
22103;SDS011;11218;48.886;9.426;2022-11-15T00:58:24;499.83;;;163.85;;
22103;SDS011;11218;48.886;9.426;2022-11-15T01:00:52;501.67;;;160.23;;
22103;SDS011;11218;48.886;9.426;2022-11-15T01:03:21;484.02;;;158.02;;
22103;SDS011;11218;48.886;9.426;2022-11-15T01:05:50;497.55;;;160.38;;
22103;SDS011;11218;48.886;9.426;2022-11-15T01:08:18;494.65;;;162.73;;
22103;SDS011;11218;48.886;9.426;2022-11-15T01:10:46;496.30;;;163.23;;
22103;SDS011;11218;48.886;9.426;2022-11-15T01:13:14;500.80;;;163.98;;
22103;SDS011;11218;48.886;9.426;2022-11-15T01:15:42;511.95;;;165.55;;
22103;SDS011;11218;48.886;9.426;2022-11-15T01:18:10;511.65;;;164.55;;
22103;SDS011;11218;48.886;9.426;2022-11-15T01:20:39;498.65;;;160.02;;
22103;SDS011;11218;48.886;9.426;2022-11-15T01:23:09;526.80;;;172.48;;
22103;SDS011;11218;48.886;9.426;2022-11-15T01:25:37;516.58;;;163.93;;
22103;SDS011;11218;48.886;9.426;2022-11-15T01:28:05;511.40;;;163.15;;
22103;SDS011;11218;48.886;9.426;2022-11-15T01:30:33;518.33;;;166.30;;
22103;SDS011;11218;48.886;9.426;2022-11-15T01:33:03;533.30;;;170.32;;
22103;SDS011;11218;48.886;9.426;2022-11-15T01:35:31;539.90;;;169.25;;
22103;SDS011;11218;48.886;9.426;2022-11-15T01:37:59;539.92;;;169.63;;
22103;SDS011;11218;48.886;9.426;2022-11-15T01:40:28;531.00;;;167.40;;
22103;SDS011;11218;48.886;9.426;2022-11-15T01:42:56;549.00;;;172.57;;
22103;SDS011;11218;48.886;9.426;2022-11-15T01:45:24;557.80;;;172.98;;
22103;SDS011;11218;48.886;9.426;2022-11-15T01:47:53;550.65;;;172.55;;
22103;SDS011;11218;48.886;9.426;2022-11-15T01:50:23;551.08;;;171.20;;
22103;SDS011;11218;48.886;9.426;2022-11-15T01:52:55;547.05;;;170.27;;
22103;SDS011;11218;48.886;9.426;2022-11-15T01:55:24;491.70;;;156.10;;
22103;SDS011;11218;48.886;9.426;2022-11-15T01:57:54;521.63;;;164.15;;
22103;SDS011;11218;48.886;9.426;2022-11-15T02:00:25;489.02;;;156.18;;
22103;SDS011;11218;48.886;9.426;2022-11-15T02:02:53;512.60;;;164.40;;
22103;SDS011;11218;48.886;9.426;2022-11-15T02:05:21;526.42;;;166.05;;
22103;SDS011;11218;48.886;9.426;2022-11-15T02:07:50;516.65;;;166.45;;
22103;SDS011;11218;48.886;9.426;2022-11-15T02:10:21;510.35;;;161.77;;
22103;SDS011;11218;48.886;9.426;2022-11-15T02:12:49;524.13;;;167.20;;
22103;SDS011;11218;48.886;9.426;2022-11-15T02:15:20;520.58;;;159.75;;
22103;SDS011;11218;48.886;9.426;2022-11-15T02:17:52;521.95;;;164.95;;
22103;SDS011;11218;48.886;9.426;2022-11-15T02:20:34;506.30;;;157.05;;
22103;SDS011;11218;48.886;9.426;2022-11-15T02:26:14;499.58;;;156.93;;
22103;SDS011;11218;48.886;9.426;2022-11-15T02:28:59;504.55;;;160.27;;
22103;SDS011;11218;48.886;9.426;2022-11-15T02:31:34;509.83;;;163.00;;
22103;SDS011;11218;48.886;9.426;2022-11-15T02:34:08;490.02;;;153.55;;
22103;SDS011;11218;48.886;9.426;2022-11-15T02:36:49;505.48;;;160.35;;
22103;SDS011;11218;48.886;9.426;2022-11-15T02:39:27;500.00;;;160.35;;
22103;SDS011;11218;48.886;9.426;2022-11-15T02:42:02;513.00;;;165.80;;
22103;SDS011;11218;48.886;9.426;2022-11-15T02:44:51;492.90;;;155.70;;
22103;SDS011;11218;48.886;9.426;2022-11-15T02:47:23;481.55;;;156.55;;
22103;SDS011;11218;48.886;9.426;2022-11-15T02:49:56;499.00;;;159.60;;
22103;SDS011;11218;48.886;9.426;2022-11-15T02:52:28;495.40;;;158.95;;
22103;SDS011;11218;48.886;9.426;2022-11-15T02:54:56;485.13;;;155.82;;
22103;SDS011;11218;48.886;9.426;2022-11-15T02:57:29;493.70;;;155.18;;
22103;SDS011;11218;48.886;9.426;2022-11-15T03:00:07;492.40;;;155.68;;
22103;SDS011;11218;48.886;9.426;2022-11-15T03:02:45;503.33;;;159.85;;
22103;SDS011;11218;48.886;9.426;2022-11-15T03:05:33;494.83;;;158.32;;
22103;SDS011;11218;48.886;9.426;2022-11-15T03:08:06;485.92;;;156.75;;
22103;SDS011;11218;48.886;9.426;2022-11-15T03:10:40;519.10;;;161.90;;
22103;SDS011;11218;48.886;9.426;2022-11-15T03:13:17;510.05;;;160.18;;
22103;SDS011;11218;48.886;9.426;2022-11-15T03:15:53;514.92;;;161.30;;
22103;SDS011;11218;48.886;9.426;2022-11-15T03:18:31;525.22;;;161.15;;
22103;SDS011;11218;48.886;9.426;2022-11-15T03:21:05;522.65;;;162.00;;
22103;SDS011;11218;48.886;9.426;2022-11-15T03:23:36;515.38;;;163.00;;
22103;SDS011;11218;48.886;9.426;2022-11-15T03:26:05;500.27;;;158.18;;
22103;SDS011;11218;48.886;9.426;2022-11-15T03:28:36;531.92;;;163.00;;
22103;SDS011;11218;48.886;9.426;2022-11-15T03:31:06;522.15;;;159.85;;
22103;SDS011;11218;48.886;9.426;2022-11-15T03:33:55;533.38;;;162.75;;
22103;SDS011;11218;48.886;9.426;2022-11-15T03:36:26;520.00;;;159.48;;
22103;SDS011;11218;48.886;9.426;2022-11-15T03:38:55;521.55;;;161.68;;
22103;SDS011;11218;48.886;9.426;2022-11-15T03:41:28;513.92;;;159.18;;
22103;SDS011;11218;48.886;9.426;2022-11-15T03:44:04;537.22;;;164.00;;
22103;SDS011;11218;48.886;9.426;2022-11-15T03:46:42;518.88;;;160.32;;
22103;SDS011;11218;48.886;9.426;2022-11-15T03:49:17;524.67;;;158.55;;
22103;SDS011;11218;48.886;9.426;2022-11-15T03:51:49;535.00;;;160.77;;
22103;SDS011;11218;48.886;9.426;2022-11-15T03:54:17;529.08;;;161.30;;
22103;SDS011;11218;48.886;9.426;2022-11-15T03:56:45;529.70;;;160.32;;
22103;SDS011;11218;48.886;9.426;2022-11-15T03:59:13;520.40;;;163.02;;
22103;SDS011;11218;48.886;9.426;2022-11-15T04:01:41;502.25;;;156.35;;
22103;SDS011;11218;48.886;9.426;2022-11-15T04:04:09;501.48;;;156.48;;
22103;SDS011;11218;48.886;9.426;2022-11-15T04:06:38;517.40;;;157.50;;
22103;SDS011;11218;48.886;9.426;2022-11-15T04:09:06;520.42;;;159.15;;
22103;SDS011;11218;48.886;9.426;2022-11-15T04:11:34;519.50;;;158.23;;
22103;SDS011;11218;48.886;9.426;2022-11-15T04:14:02;507.75;;;154.02;;
22103;SDS011;11218;48.886;9.426;2022-11-15T04:16:30;546.95;;;159.43;;
22103;SDS011;11218;48.886;9.426;2022-11-15T04:18:58;547.95;;;160.88;;
22103;SDS011;11218;48.886;9.426;2022-11-15T04:21:44;549.42;;;162.48;;
22103;SDS011;11218;48.886;9.426;2022-11-15T04:24:30;549.97;;;162.85;;
22103;SDS011;11218;48.886;9.426;2022-11-15T04:26:58;537.10;;;158.63;;
22103;SDS011;11218;48.886;9.426;2022-11-15T04:29:25;568.33;;;170.48;;
22103;SDS011;11218;48.886;9.426;2022-11-15T04:32:03;546.00;;;161.88;;
22103;SDS011;11218;48.886;9.426;2022-11-15T04:34:31;518.67;;;155.27;;
22103;SDS011;11218;48.886;9.426;2022-11-15T04:37:01;510.33;;;156.52;;
22103;SDS011;11218;48.886;9.426;2022-11-15T04:39:42;520.25;;;156.98;;
22103;SDS011;11218;48.886;9.426;2022-11-15T04:42:10;537.67;;;159.38;;
22103;SDS011;11218;48.886;9.426;2022-11-15T04:44:38;510.73;;;153.75;;
22103;SDS011;11218;48.886;9.426;2022-11-15T04:47:06;485.08;;;148.82;;
22103;SDS011;11218;48.886;9.426;2022-11-15T04:49:34;506.42;;;155.18;;
22103;SDS011;11218;48.886;9.426;2022-11-15T04:52:03;478.10;;;148.32;;
22103;SDS011;11218;48.886;9.426;2022-11-15T04:54:31;452.98;;;143.40;;
22103;SDS011;11218;48.886;9.426;2022-11-15T04:56:59;486.10;;;152.55;;
22103;SDS011;11218;48.886;9.426;2022-11-15T04:59:27;483.88;;;152.05;;
22103;SDS011;11218;48.886;9.426;2022-11-15T05:01:55;490.55;;;153.75;;
22103;SDS011;11218;48.886;9.426;2022-11-15T05:04:23;490.80;;;150.75;;
22103;SDS011;11218;48.886;9.426;2022-11-15T05:06:50;495.98;;;150.70;;
22103;SDS011;11218;48.886;9.426;2022-11-15T05:09:20;511.02;;;157.93;;
22103;SDS011;11218;48.886;9.426;2022-11-15T05:11:49;504.45;;;153.77;;
22103;SDS011;11218;48.886;9.426;2022-11-15T05:14:17;491.23;;;155.07;;
22103;SDS011;11218;48.886;9.426;2022-11-15T05:16:44;471.20;;;149.52;;
22103;SDS011;11218;48.886;9.426;2022-11-15T05:19:13;447.48;;;145.90;;
22103;SDS011;11218;48.886;9.426;2022-11-15T05:21:40;461.55;;;145.95;;
22103;SDS011;11218;48.886;9.426;2022-11-15T05:24:09;469.45;;;152.15;;
22103;SDS011;11218;48.886;9.426;2022-11-15T05:26:39;440.48;;;142.55;;
22103;SDS011;11218;48.886;9.426;2022-11-15T05:29:08;470.33;;;148.88;;
22103;SDS011;11218;48.886;9.426;2022-11-15T05:31:38;454.70;;;146.80;;
22103;SDS011;11218;48.886;9.426;2022-11-15T05:34:07;443.73;;;143.68;;
22103;SDS011;11218;48.886;9.426;2022-11-15T05:36:36;438.65;;;147.27;;
22103;SDS011;11218;48.886;9.426;2022-11-15T05:39:05;423.65;;;140.38;;
22103;SDS011;11218;48.886;9.426;2022-11-15T05:41:35;417.40;;;138.50;;
22103;SDS011;11218;48.886;9.426;2022-11-15T05:44:09;454.98;;;147.13;;
22103;SDS011;11218;48.886;9.426;2022-11-15T05:46:39;471.58;;;148.75;;
22103;SDS011;11218;48.886;9.426;2022-11-15T05:49:09;451.48;;;145.07;;
22103;SDS011;11218;48.886;9.426;2022-11-15T05:51:40;422.85;;;141.73;;
22103;SDS011;11218;48.886;9.426;2022-11-15T05:54:12;456.65;;;145.73;;
22103;SDS011;11218;48.886;9.426;2022-11-15T05:56:42;475.42;;;149.07;;
22103;SDS011;11218;48.886;9.426;2022-11-15T05:59:11;495.33;;;157.95;;
22103;SDS011;11218;48.886;9.426;2022-11-15T06:01:39;476.95;;;149.50;;
22103;SDS011;11218;48.886;9.426;2022-11-15T06:04:08;482.08;;;150.77;;
22103;SDS011;11218;48.886;9.426;2022-11-15T06:06:37;495.02;;;154.95;;
22103;SDS011;11218;48.886;9.426;2022-11-15T06:09:04;472.70;;;151.10;;
22103;SDS011;11218;48.886;9.426;2022-11-15T06:11:32;437.90;;;143.43;;
22103;SDS011;11218;48.886;9.426;2022-11-15T06:14:02;445.77;;;144.50;;
22103;SDS011;11218;48.886;9.426;2022-11-15T06:16:30;463.75;;;146.40;;
22103;SDS011;11218;48.886;9.426;2022-11-15T06:18:58;480.77;;;151.40;;
22103;SDS011;11218;48.886;9.426;2022-11-15T06:21:26;459.63;;;148.50;;
22103;SDS011;11218;48.886;9.426;2022-11-15T06:23:55;458.40;;;147.20;;
22103;SDS011;11218;48.886;9.426;2022-11-15T06:26:23;470.23;;;148.75;;
22103;SDS011;11218;48.886;9.426;2022-11-15T06:28:51;491.20;;;156.40;;
22103;SDS011;11218;48.886;9.426;2022-11-15T06:31:20;478.60;;;150.43;;
22103;SDS011;11218;48.886;9.426;2022-11-15T06:33:48;479.35;;;150.60;;
22103;SDS011;11218;48.886;9.426;2022-11-15T06:36:16;447.45;;;145.25;;
22103;SDS011;11218;48.886;9.426;2022-11-15T06:38:44;478.73;;;157.38;;
22103;SDS011;11218;48.886;9.426;2022-11-15T06:41:13;507.50;;;158.80;;
22103;SDS011;11218;48.886;9.426;2022-11-15T06:43:43;478.40;;;151.25;;
22103;SDS011;11218;48.886;9.426;2022-11-15T06:46:10;455.35;;;148.13;;
22103;SDS011;11218;48.886;9.426;2022-11-15T06:48:40;535.40;;;176.77;;
22103;SDS011;11218;48.886;9.426;2022-11-15T06:51:08;450.48;;;149.38;;
22103;SDS011;11218;48.886;9.426;2022-11-15T06:53:35;435.88;;;143.10;;
22103;SDS011;11218;48.886;9.426;2022-11-15T06:56:04;424.23;;;140.50;;
22103;SDS011;11218;48.886;9.426;2022-11-15T06:58:33;443.08;;;146.57;;
22103;SDS011;11218;48.886;9.426;2022-11-15T07:01:02;437.05;;;144.50;;
22103;SDS011;11218;48.886;9.426;2022-11-15T07:03:33;439.35;;;141.45;;
22103;SDS011;11218;48.886;9.426;2022-11-15T07:06:03;443.20;;;143.57;;
22103;SDS011;11218;48.886;9.426;2022-11-15T07:08:33;420.13;;;138.05;;
22103;SDS011;11218;48.886;9.426;2022-11-15T07:11:02;439.70;;;145.77;;
22103;SDS011;11218;48.886;9.426;2022-11-15T07:13:31;447.13;;;145.32;;
22103;SDS011;11218;48.886;9.426;2022-11-15T07:16:01;422.23;;;139.77;;
22103;SDS011;11218;48.886;9.426;2022-11-15T07:18:30;439.05;;;145.18;;
22103;SDS011;11218;48.886;9.426;2022-11-15T07:21:00;436.13;;;143.23;;
22103;SDS011;11218;48.886;9.426;2022-11-15T07:23:30;412.20;;;136.63;;
22103;SDS011;11218;48.886;9.426;2022-11-15T07:25:59;408.17;;;135.48;;
22103;SDS011;11218;48.886;9.426;2022-11-15T07:28:27;413.92;;;139.07;;
22103;SDS011;11218;48.886;9.426;2022-11-15T07:30:56;415.02;;;142.52;;
22103;SDS011;11218;48.886;9.426;2022-11-15T07:33:24;374.80;;;136.50;;
22103;SDS011;11218;48.886;9.426;2022-11-15T07:35:53;389.67;;;135.85;;
22103;SDS011;11218;48.886;9.426;2022-11-15T07:38:21;384.77;;;134.68;;
22103;SDS011;11218;48.886;9.426;2022-11-15T07:40:56;423.33;;;140.20;;
22103;SDS011;11218;48.886;9.426;2022-11-15T07:43:25;448.58;;;147.95;;
22103;SDS011;11218;48.886;9.426;2022-11-15T07:45:54;433.85;;;143.80;;
22103;SDS011;11218;48.886;9.426;2022-11-15T07:48:24;392.30;;;135.32;;
22103;SDS011;11218;48.886;9.426;2022-11-15T07:51:10;420.50;;;143.07;;
22103;SDS011;11218;48.886;9.426;2022-11-15T07:53:39;400.02;;;136.07;;
22103;SDS011;11218;48.886;9.426;2022-11-15T07:56:09;406.55;;;138.85;;
22103;SDS011;11218;48.886;9.426;2022-11-15T07:58:37;404.15;;;137.48;;
22103;SDS011;11218;48.886;9.426;2022-11-15T08:01:06;399.67;;;136.40;;
22103;SDS011;11218;48.886;9.426;2022-11-15T08:03:38;422.90;;;142.40;;
22103;SDS011;11218;48.886;9.426;2022-11-15T08:06:05;428.05;;;139.73;;
22103;SDS011;11218;48.886;9.426;2022-11-15T08:08:33;433.65;;;143.60;;
22103;SDS011;11218;48.886;9.426;2022-11-15T08:11:02;444.92;;;146.38;;
22103;SDS011;11218;48.886;9.426;2022-11-15T08:13:31;443.40;;;146.25;;
22103;SDS011;11218;48.886;9.426;2022-11-15T08:16:00;457.38;;;148.60;;
22103;SDS011;11218;48.886;9.426;2022-11-15T08:18:31;469.08;;;148.90;;
22103;SDS011;11218;48.886;9.426;2022-11-15T08:20:59;487.80;;;156.77;;
22103;SDS011;11218;48.886;9.426;2022-11-15T08:23:27;479.15;;;155.63;;
22103;SDS011;11218;48.886;9.426;2022-11-15T08:26:00;444.58;;;146.75;;
22103;SDS011;11218;48.886;9.426;2022-11-15T08:28:29;454.40;;;149.10;;
22103;SDS011;11218;48.886;9.426;2022-11-15T08:30:58;455.67;;;151.43;;
22103;SDS011;11218;48.886;9.426;2022-11-15T08:33:26;421.10;;;145.68;;
22103;SDS011;11218;48.886;9.426;2022-11-15T08:35:55;403.02;;;140.73;;
22103;SDS011;11218;48.886;9.426;2022-11-15T08:38:24;443.27;;;152.65;;
22103;SDS011;11218;48.886;9.426;2022-11-15T08:40:58;417.27;;;143.77;;
22103;SDS011;11218;48.886;9.426;2022-11-15T08:43:29;433.45;;;149.93;;
22103;SDS011;11218;48.886;9.426;2022-11-15T08:45:58;453.05;;;158.40;;
22103;SDS011;11218;48.886;9.426;2022-11-15T08:48:26;449.23;;;154.80;;
22103;SDS011;11218;48.886;9.426;2022-11-15T08:50:55;451.77;;;156.80;;
22103;SDS011;11218;48.886;9.426;2022-11-15T08:53:23;438.95;;;152.85;;
22103;SDS011;11218;48.886;9.426;2022-11-15T08:55:51;436.42;;;151.82;;
22103;SDS011;11218;48.886;9.426;2022-11-15T08:58:19;450.67;;;156.25;;
22103;SDS011;11218;48.886;9.426;2022-11-15T09:00:47;444.38;;;156.98;;
22103;SDS011;11218;48.886;9.426;2022-11-15T09:03:16;457.73;;;153.52;;
22103;SDS011;11218;48.886;9.426;2022-11-15T09:05:44;446.15;;;153.80;;
22103;SDS011;11218;48.886;9.426;2022-11-15T09:08:12;441.15;;;153.15;;
22103;SDS011;11218;48.886;9.426;2022-11-15T09:11:03;387.42;;;144.88;;
22103;SDS011;11218;48.886;9.426;2022-11-15T09:13:32;371.42;;;145.60;;
22103;SDS011;11218;48.886;9.426;2022-11-15T09:16:00;418.17;;;154.65;;
22103;SDS011;11218;48.886;9.426;2022-11-15T09:18:30;413.75;;;150.85;;
22103;SDS011;11218;48.886;9.426;2022-11-15T09:20:58;401.77;;;148.10;;
22103;SDS011;11218;48.886;9.426;2022-11-15T09:23:28;417.92;;;152.23;;
22103;SDS011;11218;48.886;9.426;2022-11-15T09:25:59;411.73;;;149.88;;
22103;SDS011;11218;48.886;9.426;2022-11-15T09:28:29;432.50;;;150.82;;
22103;SDS011;11218;48.886;9.426;2022-11-15T09:30:58;435.45;;;155.82;;
22103;SDS011;11218;48.886;9.426;2022-11-15T09:33:26;402.48;;;150.10;;
22103;SDS011;11218;48.886;9.426;2022-11-15T09:36:00;438.90;;;156.82;;
22103;SDS011;11218;48.886;9.426;2022-11-15T09:38:29;437.33;;;152.82;;
22103;SDS011;11218;48.886;9.426;2022-11-15T09:41:08;426.73;;;148.63;;
22103;SDS011;11218;48.886;9.426;2022-11-15T09:43:50;454.40;;;156.98;;
22103;SDS011;11218;48.886;9.426;2022-11-15T09:46:35;453.55;;;155.73;;
22103;SDS011;11218;48.886;9.426;2022-11-15T09:49:11;406.33;;;147.68;;
22103;SDS011;11218;48.886;9.426;2022-11-15T09:51:44;424.60;;;156.52;;
22103;SDS011;11218;48.886;9.426;2022-11-15T09:54:19;414.05;;;150.27;;
22103;SDS011;11218;48.886;9.426;2022-11-15T09:57:14;394.17;;;145.82;;
22103;SDS011;11218;48.886;9.426;2022-11-15T09:59:48;404.13;;;149.18;;
22103;SDS011;11218;48.886;9.426;2022-11-15T10:02:46;407.20;;;151.38;;
22103;SDS011;11218;48.886;9.426;2022-11-15T10:05:24;416.83;;;158.35;;
22103;SDS011;11218;48.886;9.426;2022-11-15T10:07:57;390.15;;;148.85;;
22103;SDS011;11218;48.886;9.426;2022-11-15T10:10:32;383.75;;;147.63;;
22103;SDS011;11218;48.886;9.426;2022-11-15T10:13:06;396.13;;;150.35;;
22103;SDS011;11218;48.886;9.426;2022-11-15T10:15:41;404.80;;;151.98;;
22103;SDS011;11218;48.886;9.426;2022-11-15T10:18:15;421.27;;;157.90;;
22103;SDS011;11218;48.886;9.426;2022-11-15T10:20:47;455.88;;;168.98;;
22103;SDS011;11218;48.886;9.426;2022-11-15T10:23:18;424.77;;;161.52;;
22103;SDS011;11218;48.886;9.426;2022-11-15T10:25:50;424.95;;;161.60;;
22103;SDS011;11218;48.886;9.426;2022-11-15T10:28:21;407.17;;;159.30;;
22103;SDS011;11218;48.886;9.426;2022-11-15T10:30:50;406.98;;;163.63;;
22103;SDS011;11218;48.886;9.426;2022-11-15T10:33:27;433.42;;;168.60;;
22103;SDS011;11218;48.886;9.426;2022-11-15T10:36:16;361.70;;;149.80;;
22103;SDS011;11218;48.886;9.426;2022-11-15T10:38:52;392.52;;;157.88;;
22103;SDS011;11218;48.886;9.426;2022-11-15T10:41:22;404.33;;;159.07;;
22103;SDS011;11218;48.886;9.426;2022-11-15T10:44:02;395.65;;;158.10;;
22103;SDS011;11218;48.886;9.426;2022-11-15T10:47:05;383.80;;;153.88;;
22103;SDS011;11218;48.886;9.426;2022-11-15T10:49:53;403.17;;;157.18;;
22103;SDS011;11218;48.886;9.426;2022-11-15T10:52:25;414.02;;;158.57;;
22103;SDS011;11218;48.886;9.426;2022-11-15T10:54:57;438.80;;;170.10;;
22103;SDS011;11218;48.886;9.426;2022-11-15T10:57:31;384.75;;;155.57;;
22103;SDS011;11218;48.886;9.426;2022-11-15T11:00:03;381.95;;;153.45;;
22103;SDS011;11218;48.886;9.426;2022-11-15T11:02:33;368.30;;;154.82;;
22103;SDS011;11218;48.886;9.426;2022-11-15T11:05:03;388.02;;;156.90;;
22103;SDS011;11218;48.886;9.426;2022-11-15T11:07:34;370.27;;;152.80;;
22103;SDS011;11218;48.886;9.426;2022-11-15T11:10:05;379.90;;;158.10;;
22103;SDS011;11218;48.886;9.426;2022-11-15T11:13:13;401.67;;;157.93;;
22103;SDS011;11218;48.886;9.426;2022-11-15T11:15:42;428.98;;;163.15;;
22103;SDS011;11218;48.886;9.426;2022-11-15T11:18:15;422.45;;;164.85;;
22103;SDS011;11218;48.886;9.426;2022-11-15T11:20:49;461.27;;;177.10;;
22103;SDS011;11218;48.886;9.426;2022-11-15T11:23:36;457.35;;;173.45;;
22103;SDS011;11218;48.886;9.426;2022-11-15T11:26:18;463.23;;;171.65;;
22103;SDS011;11218;48.886;9.426;2022-11-15T11:29:01;455.42;;;174.32;;
22103;SDS011;11218;48.886;9.426;2022-11-15T11:31:39;451.17;;;166.40;;
22103;SDS011;11218;48.886;9.426;2022-11-15T11:34:16;462.60;;;170.38;;
22103;SDS011;11218;48.886;9.426;2022-11-15T11:36:58;479.58;;;176.63;;
22103;SDS011;11218;48.886;9.426;2022-11-15T11:39:34;461.90;;;171.88;;
22103;SDS011;11218;48.886;9.426;2022-11-15T11:42:16;469.55;;;170.07;;
22103;SDS011;11218;48.886;9.426;2022-11-15T11:44:55;476.48;;;175.10;;
22103;SDS011;11218;48.886;9.426;2022-11-15T11:47:31;482.75;;;177.05;;
22103;SDS011;11218;48.886;9.426;2022-11-15T11:50:10;472.63;;;176.95;;
22103;SDS011;11218;48.886;9.426;2022-11-15T11:52:43;464.83;;;171.88;;
22103;SDS011;11218;48.886;9.426;2022-11-15T11:55:19;463.45;;;174.32;;
22103;SDS011;11218;48.886;9.426;2022-11-15T11:57:54;467.05;;;173.45;;
22103;SDS011;11218;48.886;9.426;2022-11-15T12:00:30;480.63;;;177.38;;
22103;SDS011;11218;48.886;9.426;2022-11-15T12:03:04;485.15;;;180.32;;
22103;SDS011;11218;48.886;9.426;2022-11-15T12:05:40;475.70;;;177.70;;
22103;SDS011;11218;48.886;9.426;2022-11-15T12:08:21;486.58;;;181.95;;
22103;SDS011;11218;48.886;9.426;2022-11-15T12:11:03;473.70;;;176.70;;
22103;SDS011;11218;48.886;9.426;2022-11-15T12:13:38;490.05;;;179.45;;
22103;SDS011;11218;48.886;9.426;2022-11-15T12:16:09;476.42;;;175.40;;
22103;SDS011;11218;48.886;9.426;2022-11-15T12:18:41;476.10;;;178.80;;
22103;SDS011;11218;48.886;9.426;2022-11-15T12:21:16;471.00;;;176.63;;
22103;SDS011;11218;48.886;9.426;2022-11-15T12:23:54;497.38;;;181.10;;
22103;SDS011;11218;48.886;9.426;2022-11-15T12:26:28;474.08;;;174.77;;
22103;SDS011;11218;48.886;9.426;2022-11-15T12:29:03;494.73;;;180.75;;
22103;SDS011;11218;48.886;9.426;2022-11-15T12:31:38;501.95;;;185.98;;
22103;SDS011;11218;48.886;9.426;2022-11-15T12:34:28;478.63;;;178.00;;
22103;SDS011;11218;48.886;9.426;2022-11-15T12:37:32;495.40;;;182.43;;
22103;SDS011;11218;48.886;9.426;2022-11-15T12:40:19;495.90;;;178.93;;
22103;SDS011;11218;48.886;9.426;2022-11-15T12:43:02;490.92;;;180.77;;
22103;SDS011;11218;48.886;9.426;2022-11-15T12:45:34;504.02;;;181.38;;
22103;SDS011;11218;48.886;9.426;2022-11-15T12:54:51;530.03;;;193.52;;
22103;SDS011;11218;48.886;9.426;2022-11-15T12:57:40;524.83;;;185.07;;
22103;SDS011;11218;48.886;9.426;2022-11-15T13:03:19;533.22;;;192.35;;
22103;SDS011;11218;48.886;9.426;2022-11-15T13:05:58;515.10;;;188.38;;
22103;SDS011;11218;48.886;9.426;2022-11-15T13:08:42;536.60;;;194.25;;
22103;SDS011;11218;48.886;9.426;2022-11-15T13:17:26;460.85;;;173.85;;
22103;SDS011;11218;48.886;9.426;2022-11-15T13:20:11;458.67;;;176.43;;
22103;SDS011;11218;48.886;9.426;2022-11-15T13:22:46;505.27;;;181.30;;
22103;SDS011;11218;48.886;9.426;2022-11-15T13:25:18;516.50;;;189.38;;
22103;SDS011;11218;48.886;9.426;2022-11-15T13:27:51;508.48;;;182.25;;
22103;SDS011;11218;48.886;9.426;2022-11-15T13:30:21;460.67;;;174.30;;
22103;SDS011;11218;48.886;9.426;2022-11-15T13:32:52;481.38;;;178.60;;
22103;SDS011;11218;48.886;9.426;2022-11-15T13:35:21;474.60;;;174.82;;
22103;SDS011;11218;48.886;9.426;2022-11-15T13:37:50;511.95;;;187.32;;
22103;SDS011;11218;48.886;9.426;2022-11-15T13:40:29;521.38;;;185.93;;
22103;SDS011;11218;48.886;9.426;2022-11-15T13:43:13;510.02;;;180.43;;
22103;SDS011;11218;48.886;9.426;2022-11-15T13:46:03;515.35;;;192.02;;
22103;SDS011;11218;48.886;9.426;2022-11-15T13:48:36;509.55;;;188.60;;
22103;SDS011;11218;48.886;9.426;2022-11-15T13:51:04;499.08;;;186.10;;
22103;SDS011;11218;48.886;9.426;2022-11-15T13:53:36;527.97;;;195.63;;
22103;SDS011;11218;48.886;9.426;2022-11-15T13:56:07;519.05;;;188.70;;
22103;SDS011;11218;48.886;9.426;2022-11-15T13:58:36;515.60;;;188.35;;
22103;SDS011;11218;48.886;9.426;2022-11-15T14:01:11;522.60;;;184.88;;
22103;SDS011;11218;48.886;9.426;2022-11-15T14:03:47;538.28;;;190.05;;
22103;SDS011;11218;48.886;9.426;2022-11-15T14:06:22;541.53;;;188.15;;
22103;SDS011;11218;48.886;9.426;2022-11-15T14:08:59;521.75;;;185.48;;
22103;SDS011;11218;48.886;9.426;2022-11-15T14:11:29;513.38;;;183.55;;
22103;SDS011;11218;48.886;9.426;2022-11-15T14:14:00;526.63;;;188.45;;
22103;SDS011;11218;48.886;9.426;2022-11-15T14:16:33;536.22;;;190.55;;
22103;SDS011;11218;48.886;9.426;2022-11-15T14:19:04;534.38;;;196.85;;
22103;SDS011;11218;48.886;9.426;2022-11-15T14:21:33;554.05;;;198.18;;
22103;SDS011;11218;48.886;9.426;2022-11-15T14:24:15;525.92;;;190.27;;
22103;SDS011;11218;48.886;9.426;2022-11-15T14:26:44;520.58;;;182.50;;
22103;SDS011;11218;48.886;9.426;2022-11-15T14:29:21;489.85;;;178.02;;
22103;SDS011;11218;48.886;9.426;2022-11-15T14:31:50;485.40;;;179.95;;
22103;SDS011;11218;48.886;9.426;2022-11-15T14:34:20;512.35;;;186.50;;
22103;SDS011;11218;48.886;9.426;2022-11-15T14:36:48;535.25;;;194.98;;
22103;SDS011;11218;48.886;9.426;2022-11-15T14:39:16;529.45;;;190.60;;
22103;SDS011;11218;48.886;9.426;2022-11-15T14:41:44;531.08;;;189.43;;
22103;SDS011;11218;48.886;9.426;2022-11-15T14:44:12;537.63;;;195.95;;